sensor_id;sensor_type;location;lat;lon;timestamp;pressure;altitude;pressure_sealevel;temperature;humidity
13434;BME280;6789;47.678;9.158;2022-11-24T00:03:08;96250.69;;;7.52;100.00
13434;BME280;6789;47.678;9.158;2022-11-24T00:08:00;96256.69;;;7.53;100.00
13434;BME280;6789;47.678;9.158;2022-11-24T00:12:52;96261.88;;;7.59;100.00
13434;BME280;6789;47.678;9.158;2022-11-24T00:17:44;96259.75;;;7.68;100.00
13434;BME280;6789;47.678;9.158;2022-11-24T00:22:36;96257.50;;;7.71;100.00
13434;BME280;6789;47.678;9.158;2022-11-24T00:27:27;96263.16;;;7.86;100.00
13434;BME280;6789;47.678;9.158;2022-11-24T00:32:19;96277.78;;;7.87;100.00
13434;BME280;6789;47.678;9.158;2022-11-24T00:37:11;96268.81;;;8.01;100.00
13434;BME280;6789;47.678;9.158;2022-11-24T00:42:02;96276.63;;;8.19;100.00
13434;BME280;6789;47.678;9.158;2022-11-24T00:46:54;96277.50;;;8.13;100.00
13434;BME280;6789;47.678;9.158;2022-11-24T00:51:46;96282.59;;;7.90;100.00
13434;BME280;6789;47.678;9.158;2022-11-24T00:56:38;96282.06;;;7.81;100.00
13434;BME280;6789;47.678;9.158;2022-11-24T01:01:30;96285.47;;;8.00;100.00
13434;BME280;6789;47.678;9.158;2022-11-24T01:06:25;96294.59;;;7.91;100.00
13434;BME280;6789;47.678;9.158;2022-11-24T01:11:29;96303.03;;;7.93;100.00
13434;BME280;6789;47.678;9.158;2022-11-24T01:16:41;96320.72;;;7.91;100.00
13434;BME280;6789;47.678;9.158;2022-11-24T01:21:33;96331.25;;;7.84;100.00
13434;BME280;6789;47.678;9.158;2022-11-24T01:26:25;96328.72;;;7.78;100.00
13434;BME280;6789;47.678;9.158;2022-11-24T01:31:17;96329.28;;;7.80;100.00
13434;BME280;6789;47.678;9.158;2022-11-24T01:36:09;96343.91;;;7.81;100.00
13434;BME280;6789;47.678;9.158;2022-11-24T01:41:22;96354.22;;;7.76;100.00
13434;BME280;6789;47.678;9.158;2022-11-24T01:46:37;96345.38;;;7.77;100.00
13434;BME280;6789;47.678;9.158;2022-11-24T01:51:36;96355.31;;;7.86;100.00
13434;BME280;6789;47.678;9.158;2022-11-24T01:56:32;96361.81;;;7.78;100.00
13434;BME280;6789;47.678;9.158;2022-11-24T02:01:26;96373.34;;;7.70;100.00
13434;BME280;6789;47.678;9.158;2022-11-24T02:06:28;96376.44;;;7.61;100.00
13434;BME280;6789;47.678;9.158;2022-11-24T02:11:23;96374.47;;;7.56;100.00
13434;BME280;6789;47.678;9.158;2022-11-24T02:16:17;96379.09;;;7.54;100.00
13434;BME280;6789;47.678;9.158;2022-11-24T02:21:12;96384.53;;;7.53;100.00
13434;BME280;6789;47.678;9.158;2022-11-24T02:26:37;96383.66;;;7.59;100.00
13434;BME280;6789;47.678;9.158;2022-11-24T02:31:31;96381.66;;;7.61;100.00
13434;BME280;6789;47.678;9.158;2022-11-24T02:36:23;96389.13;;;7.57;100.00
13434;BME280;6789;47.678;9.158;2022-11-24T02:41:19;96383.63;;;7.65;100.00
13434;BME280;6789;47.678;9.158;2022-11-24T02:46:12;96390.00;;;7.69;100.00
13434;BME280;6789;47.678;9.158;2022-11-24T02:51:04;96397.09;;;7.62;100.00
13434;BME280;6789;47.678;9.158;2022-11-24T02:55:56;96394.97;;;7.53;100.00
13434;BME280;6789;47.678;9.158;2022-11-24T03:00:48;96398.91;;;7.37;100.00
13434;BME280;6789;47.678;9.158;2022-11-24T03:05:39;96386.88;;;7.36;100.00
13434;BME280;6789;47.678;9.158;2022-11-24T03:10:31;96386.88;;;7.36;100.00
13434;BME280;6789;47.678;9.158;2022-11-24T03:15:23;96401.13;;;7.34;100.00
13434;BME280;6789;47.678;9.158;2022-11-24T03:20:16;96419.47;;;7.21;100.00
13434;BME280;6789;47.678;9.158;2022-11-24T03:25:08;96417.09;;;7.19;100.00
13434;BME280;6789;47.678;9.158;2022-11-24T03:30:00;96417.25;;;7.24;100.00
13434;BME280;6789;47.678;9.158;2022-11-24T03:34:52;96395.78;;;7.22;100.00
13434;BME280;6789;47.678;9.158;2022-11-24T03:39:43;96396.22;;;7.19;100.00
13434;BME280;6789;47.678;9.158;2022-11-24T03:44:35;96385.94;;;7.24;100.00
13434;BME280;6789;47.678;9.158;2022-11-24T03:49:27;96397.97;;;7.25;100.00
13434;BME280;6789;47.678;9.158;2022-11-24T03:54:19;96409.25;;;7.19;100.00
13434;BME280;6789;47.678;9.158;2022-11-24T03:59:11;96408.47;;;7.19;100.00
13434;BME280;6789;47.678;9.158;2022-11-24T04:04:03;96426.72;;;7.19;100.00
13434;BME280;6789;47.678;9.158;2022-11-24T04:08:55;96438.53;;;7.21;100.00
13434;BME280;6789;47.678;9.158;2022-11-24T04:13:47;96447.28;;;7.33;100.00
13434;BME280;6789;47.678;9.158;2022-11-24T04:18:38;96449.91;;;7.33;100.00
13434;BME280;6789;47.678;9.158;2022-11-24T04:23:30;96446.75;;;7.25;100.00
13434;BME280;6789;47.678;9.158;2022-11-24T04:28:22;96467.03;;;7.16;100.00
13434;BME280;6789;47.678;9.158;2022-11-24T04:33:14;96464.69;;;7.08;100.00
13434;BME280;6789;47.678;9.158;2022-11-24T04:38:06;96477.13;;;7.07;100.00
13434;BME280;6789;47.678;9.158;2022-11-24T04:42:57;96481.34;;;7.07;100.00
13434;BME280;6789;47.678;9.158;2022-11-24T04:47:49;96482.00;;;6.97;100.00
13434;BME280;6789;47.678;9.158;2022-11-24T04:52:41;96486.19;;;6.98;100.00
13434;BME280;6789;47.678;9.158;2022-11-24T04:57:34;96499.06;;;6.86;100.00
13434;BME280;6789;47.678;9.158;2022-11-24T05:02:39;96500.75;;;7.11;100.00
13434;BME280;6789;47.678;9.158;2022-11-24T05:07:45;96515.72;;;7.29;100.00
13434;BME280;6789;47.678;9.158;2022-11-24T05:12:56;96524.13;;;7.31;100.00
13434;BME280;6789;47.678;9.158;2022-11-24T05:18:10;96525.47;;;7.40;100.00
13434;BME280;6789;47.678;9.158;2022-11-24T05:23:07;96526.53;;;7.32;100.00
13434;BME280;6789;47.678;9.158;2022-11-24T05:28:11;96527.22;;;7.15;100.00
13434;BME280;6789;47.678;9.158;2022-11-24T05:33:17;96530.69;;;7.03;100.00
13434;BME280;6789;47.678;9.158;2022-11-24T05:38:23;96532.88;;;7.06;100.00
13434;BME280;6789;47.678;9.158;2022-11-24T05:43:29;96538.97;;;7.30;100.00
13434;BME280;6789;47.678;9.158;2022-11-24T05:48:30;96537.19;;;7.24;100.00
13434;BME280;6789;47.678;9.158;2022-11-24T05:53:36;96532.44;;;7.15;100.00
13434;BME280;6789;47.678;9.158;2022-11-24T05:58:42;96533.66;;;7.12;100.00
13434;BME280;6789;47.678;9.158;2022-11-24T06:03:36;96537.25;;;7.18;100.00
13434;BME280;6789;47.678;9.158;2022-11-24T06:08:41;96545.78;;;7.38;100.00
13434;BME280;6789;47.678;9.158;2022-11-24T06:13:47;96543.16;;;7.38;100.00
13434;BME280;6789;47.678;9.158;2022-11-24T06:18:59;96547.63;;;7.24;100.00
13434;BME280;6789;47.678;9.158;2022-11-24T06:24:05;96545.25;;;7.16;100.00
13434;BME280;6789;47.678;9.158;2022-11-24T06:29:11;96552.06;;;7.17;100.00
13434;BME280;6789;47.678;9.158;2022-11-24T06:34:17;96555.69;;;7.16;100.00
13434;BME280;6789;47.678;9.158;2022-11-24T06:39:23;96559.06;;;7.23;100.00
13434;BME280;6789;47.678;9.158;2022-11-24T06:44:29;96561.50;;;7.18;100.00
13434;BME280;6789;47.678;9.158;2022-11-24T06:49:21;96562.66;;;7.22;100.00
13434;BME280;6789;47.678;9.158;2022-11-24T06:54:27;96557.44;;;7.29;100.00
13434;BME280;6789;47.678;9.158;2022-11-24T06:59:24;96550.78;;;7.39;99.95
13434;BME280;6789;47.678;9.158;2022-11-24T07:04:30;96561.75;;;7.48;99.95
13434;BME280;6789;47.678;9.158;2022-11-24T07:09:37;96565.69;;;7.63;98.49
13434;BME280;6789;47.678;9.158;2022-11-24T07:14:43;96569.69;;;7.96;96.07
13434;BME280;6789;47.678;9.158;2022-11-24T07:19:49;96574.13;;;7.89;96.24
13434;BME280;6789;47.678;9.158;2022-11-24T07:24:55;96563.94;;;7.81;96.81
13434;BME280;6789;47.678;9.158;2022-11-24T07:29:50;96573.00;;;7.79;97.66
13434;BME280;6789;47.678;9.158;2022-11-24T07:34:56;96577.81;;;7.82;98.07
13434;BME280;6789;47.678;9.158;2022-11-24T07:39:56;96580.19;;;7.90;96.89
13434;BME280;6789;47.678;9.158;2022-11-24T07:45:02;96576.91;;;7.94;96.50
13434;BME280;6789;47.678;9.158;2022-11-24T07:50:10;96588.50;;;8.05;96.23
13434;BME280;6789;47.678;9.158;2022-11-24T07:55:16;96586.84;;;8.10;96.45
13434;BME280;6789;47.678;9.158;2022-11-24T08:00:22;96585.41;;;8.21;95.16
13434;BME280;6789;47.678;9.158;2022-11-24T08:05:28;96587.47;;;8.37;94.84
13434;BME280;6789;47.678;9.158;2022-11-24T08:10:34;96585.91;;;8.53;94.35
13434;BME280;6789;47.678;9.158;2022-11-24T08:15:40;96592.25;;;8.64;92.63
13434;BME280;6789;47.678;9.158;2022-11-24T08:20:36;96590.97;;;8.73;92.60
13434;BME280;6789;47.678;9.158;2022-11-24T08:25:42;96592.88;;;8.84;91.83
13434;BME280;6789;47.678;9.158;2022-11-24T08:30:47;96597.00;;;8.91;90.79
13434;BME280;6789;47.678;9.158;2022-11-24T08:35:53;96605.72;;;9.03;90.57
13434;BME280;6789;47.678;9.158;2022-11-24T08:41:02;96602.25;;;8.91;93.38
13434;BME280;6789;47.678;9.158;2022-11-24T08:46:12;96609.06;;;8.74;96.10
13434;BME280;6789;47.678;9.158;2022-11-24T08:51:15;96629.66;;;8.64;98.05
13434;BME280;6789;47.678;9.158;2022-11-24T08:56:21;96632.94;;;8.53;97.66
13434;BME280;6789;47.678;9.158;2022-11-24T09:01:28;96648.47;;;8.49;94.87
13434;BME280;6789;47.678;9.158;2022-11-24T09:06:34;96663.69;;;8.34;97.35
13434;BME280;6789;47.678;9.158;2022-11-24T09:11:33;96650.72;;;8.21;99.07
13434;BME280;6789;47.678;9.158;2022-11-24T09:16:39;96652.28;;;8.22;99.14
13434;BME280;6789;47.678;9.158;2022-11-24T09:21:45;96664.53;;;8.28;100.00
13434;BME280;6789;47.678;9.158;2022-11-24T09:26:53;96665.34;;;8.52;100.00
13434;BME280;6789;47.678;9.158;2022-11-24T09:32:00;96675.94;;;8.82;100.00
13434;BME280;6789;47.678;9.158;2022-11-24T09:37:06;96665.84;;;9.10;99.61
13434;BME280;6789;47.678;9.158;2022-11-24T09:42:30;96673.19;;;9.19;99.65
13434;BME280;6789;47.678;9.158;2022-11-24T09:47:56;96686.81;;;9.03;100.00
13434;BME280;6789;47.678;9.158;2022-11-24T09:53:33;96690.28;;;8.97;100.00
13434;BME280;6789;47.678;9.158;2022-11-24T09:59:22;96687.66;;;9.22;99.91
13434;BME280;6789;47.678;9.158;2022-11-24T10:04:39;96679.59;;;9.41;97.01
13434;BME280;6789;47.678;9.158;2022-11-24T10:20:47;96689.63;;;9.62;96.21
13434;BME280;6789;47.678;9.158;2022-11-24T10:25:59;96692.03;;;9.63;94.90
13434;BME280;6789;47.678;9.158;2022-11-24T10:31:36;96693.34;;;9.54;95.02
13434;BME280;6789;47.678;9.158;2022-11-24T10:37:12;96711.88;;;9.53;95.52
13434;BME280;6789;47.678;9.158;2022-11-24T10:42:52;96705.91;;;9.46;95.32
13434;BME280;6789;47.678;9.158;2022-11-24T10:47:58;96711.88;;;9.53;96.13
13434;BME280;6789;47.678;9.158;2022-11-24T10:53:25;96702.94;;;9.60;96.41
13434;BME280;6789;47.678;9.158;2022-11-24T10:58:38;96712.19;;;9.63;95.65
13434;BME280;6789;47.678;9.158;2022-11-24T11:09:28;96709.78;;;9.97;94.00
13434;BME280;6789;47.678;9.158;2022-11-24T11:14:41;96704.75;;;10.13;92.56
13434;BME280;6789;47.678;9.158;2022-11-24T11:19:50;96695.22;;;10.30;91.00
13434;BME280;6789;47.678;9.158;2022-11-24T11:25:34;96693.78;;;10.46;89.51
13434;BME280;6789;47.678;9.158;2022-11-24T11:31:04;96712.03;;;10.41;90.73
13434;BME280;6789;47.678;9.158;2022-11-24T11:36:13;96704.09;;;10.29;91.29
13434;BME280;6789;47.678;9.158;2022-11-24T11:41:30;96708.56;;;10.11;90.05
13434;BME280;6789;47.678;9.158;2022-11-24T11:46:37;96729.63;;;10.04;91.71
13434;BME280;6789;47.678;9.158;2022-11-24T11:57:53;96724.53;;;10.39;91.24
13434;BME280;6789;47.678;9.158;2022-11-24T12:03:24;96725.78;;;10.77;88.76
13434;BME280;6789;47.678;9.158;2022-11-24T12:08:59;96734.47;;;10.77;86.78
13434;BME280;6789;47.678;9.158;2022-11-24T12:53:53;96723.94;;;10.66;87.51
13434;BME280;6789;47.678;9.158;2022-11-24T13:06:05;96733.44;;;10.90;84.82
13434;BME280;6789;47.678;9.158;2022-11-24T13:16:28;96744.31;;;10.53;84.21
13434;BME280;6789;47.678;9.158;2022-11-24T13:27:25;96750.22;;;10.48;83.80
13434;BME280;6789;47.678;9.158;2022-11-24T13:53:42;96762.13;;;10.62;83.72
13434;BME280;6789;47.678;9.158;2022-11-24T13:58:58;96763.81;;;10.57;84.05
13434;BME280;6789;47.678;9.158;2022-11-24T14:04:18;96769.53;;;10.36;84.43
13434;BME280;6789;47.678;9.158;2022-11-24T14:09:49;96769.31;;;10.37;85.06
13434;BME280;6789;47.678;9.158;2022-11-24T14:15:24;96771.81;;;10.32;85.51
13434;BME280;6789;47.678;9.158;2022-11-24T14:20:30;96765.69;;;10.38;85.59
13434;BME280;6789;47.678;9.158;2022-11-24T14:25:37;96769.69;;;10.41;85.31
13434;BME280;6789;47.678;9.158;2022-11-24T14:30:43;96778.56;;;10.40;84.90
13434;BME280;6789;47.678;9.158;2022-11-24T14:35:49;96772.84;;;10.31;85.06
13434;BME280;6789;47.678;9.158;2022-11-24T14:41:22;96780.41;;;10.21;85.39
13434;BME280;6789;47.678;9.158;2022-11-24T14:46:31;96779.31;;;10.11;85.87
13434;BME280;6789;47.678;9.158;2022-11-24T14:51:43;96770.19;;;9.95;86.22
13434;BME280;6789;47.678;9.158;2022-11-24T14:56:38;96776.75;;;9.87;87.22
13434;BME280;6789;47.678;9.158;2022-11-24T15:01:44;96774.94;;;9.69;87.68
13434;BME280;6789;47.678;9.158;2022-11-24T15:07:24;96777.31;;;9.53;88.47
13434;BME280;6789;47.678;9.158;2022-11-24T15:18:00;96771.41;;;9.15;90.18
13434;BME280;6789;47.678;9.158;2022-11-24T15:23:33;96771.97;;;8.99;90.15
13434;BME280;6789;47.678;9.158;2022-11-24T15:28:45;96775.25;;;8.88;91.04
13434;BME280;6789;47.678;9.158;2022-11-24T15:33:51;96770.13;;;8.75;92.15
13434;BME280;6789;47.678;9.158;2022-11-24T15:38:46;96760.91;;;8.66;93.03
13434;BME280;6789;47.678;9.158;2022-11-24T15:43:52;96756.38;;;8.55;93.24
13434;BME280;6789;47.678;9.158;2022-11-24T15:49:04;96763.88;;;8.46;94.87
13434;BME280;6789;47.678;9.158;2022-11-24T15:54:16;96754.06;;;8.35;95.94
13434;BME280;6789;47.678;9.158;2022-11-24T15:59:23;96759.19;;;8.23;96.36
13434;BME280;6789;47.678;9.158;2022-11-24T16:04:16;96761.63;;;8.18;96.72
13434;BME280;6789;47.678;9.158;2022-11-24T16:09:21;96758.00;;;8.13;96.90
13434;BME280;6789;47.678;9.158;2022-11-24T16:14:14;96760.44;;;8.08;97.01
13434;BME280;6789;47.678;9.158;2022-11-24T16:19:20;96768.50;;;8.00;97.24
13434;BME280;6789;47.678;9.158;2022-11-24T16:24:26;96765.31;;;7.91;97.95
13434;BME280;6789;47.678;9.158;2022-11-24T16:29:33;96768.38;;;7.82;98.13
13434;BME280;6789;47.678;9.158;2022-11-24T16:34:29;96772.22;;;7.60;100.00
13434;BME280;6789;47.678;9.158;2022-11-24T16:39:35;96772.66;;;7.44;100.00
13434;BME280;6789;47.678;9.158;2022-11-24T16:44:40;96773.88;;;7.42;100.00
13434;BME280;6789;47.678;9.158;2022-11-24T16:49:46;96771.69;;;7.32;100.00
13434;BME280;6789;47.678;9.158;2022-11-24T16:54:52;96775.91;;;7.14;100.00
13434;BME280;6789;47.678;9.158;2022-11-24T16:59:58;96784.75;;;7.07;100.00
13434;BME280;6789;47.678;9.158;2022-11-24T17:05:05;96774.31;;;6.87;100.00
13434;BME280;6789;47.678;9.158;2022-11-24T17:10:11;96775.91;;;6.75;100.00
13434;BME280;6789;47.678;9.158;2022-11-24T17:15:17;96779.13;;;6.71;100.00
13434;BME280;6789;47.678;9.158;2022-11-24T17:20:23;96780.28;;;6.62;100.00
13434;BME280;6789;47.678;9.158;2022-11-24T17:25:23;96780.88;;;6.51;100.00
13434;BME280;6789;47.678;9.158;2022-11-24T17:30:28;96794.28;;;6.41;100.00
13434;BME280;6789;47.678;9.158;2022-11-24T17:35:35;96784.28;;;6.38;100.00
13434;BME280;6789;47.678;9.158;2022-11-24T17:40:29;96778.66;;;6.35;100.00
13434;BME280;6789;47.678;9.158;2022-11-24T17:45:34;96777.03;;;6.34;100.00
13434;BME280;6789;47.678;9.158;2022-11-24T17:50:42;96780.03;;;6.31;100.00
13434;BME280;6789;47.678;9.158;2022-11-24T17:55:49;96771.38;;;6.24;100.00
13434;BME280;6789;47.678;9.158;2022-11-24T18:00:56;96771.97;;;6.13;100.00
13434;BME280;6789;47.678;9.158;2022-11-24T18:06:11;96763.16;;;6.14;100.00
13434;BME280;6789;47.678;9.158;2022-11-24T18:11:25;96769.97;;;6.15;100.00
13434;BME280;6789;47.678;9.158;2022-11-24T18:16:33;96757.53;;;6.11;100.00
13434;BME280;6789;47.678;9.158;2022-11-24T18:21:40;96759.09;;;5.99;100.00
13434;BME280;6789;47.678;9.158;2022-11-24T18:26:41;96758.06;;;5.93;100.00
13434;BME280;6789;47.678;9.158;2022-11-24T18:31:49;96746.88;;;5.93;100.00
13434;BME280;6789;47.678;9.158;2022-11-24T18:36:48;96751.66;;;5.89;100.00
13434;BME280;6789;47.678;9.158;2022-11-24T18:41:57;96746.84;;;5.86;100.00
13434;BME280;6789;47.678;9.158;2022-11-24T18:47:08;96744.63;;;5.83;100.00
13434;BME280;6789;47.678;9.158;2022-11-24T18:52:14;96750.97;;;5.74;100.00
13434;BME280;6789;47.678;9.158;2022-11-24T18:57:28;96746.16;;;5.71;100.00
13434;BME280;6789;47.678;9.158;2022-11-24T19:02:34;96743.34;;;5.66;100.00
13434;BME280;6789;47.678;9.158;2022-11-24T19:07:40;96743.13;;;5.68;100.00
13434;BME280;6789;47.678;9.158;2022-11-24T19:12:34;96735.97;;;5.70;100.00
13434;BME280;6789;47.678;9.158;2022-11-24T19:17:26;96737.94;;;5.68;100.00
13434;BME280;6789;47.678;9.158;2022-11-24T19:22:32;96734.72;;;5.66;100.00
13434;BME280;6789;47.678;9.158;2022-11-24T19:27:24;96738.50;;;5.63;100.00
13434;BME280;6789;47.678;9.158;2022-11-24T19:32:18;96729.44;;;5.53;100.00
13434;BME280;6789;47.678;9.158;2022-11-24T19:37:18;96733.03;;;5.52;100.00
13434;BME280;6789;47.678;9.158;2022-11-24T19:42:24;96734.00;;;5.45;100.00
13434;BME280;6789;47.678;9.158;2022-11-24T19:47:30;96734.16;;;5.37;100.00
13434;BME280;6789;47.678;9.158;2022-11-24T19:52:36;96743.50;;;5.25;100.00
13434;BME280;6789;47.678;9.158;2022-11-24T19:57:42;96743.84;;;5.15;100.00
13434;BME280;6789;47.678;9.158;2022-11-24T20:02:49;96744.59;;;5.09;100.00
13434;BME280;6789;47.678;9.158;2022-11-24T20:07:54;96749.13;;;5.01;100.00
13434;BME280;6789;47.678;9.158;2022-11-24T20:12:47;96749.47;;;4.92;100.00
13434;BME280;6789;47.678;9.158;2022-11-24T20:17:40;96752.22;;;4.84;100.00
13434;BME280;6789;47.678;9.158;2022-11-24T20:22:46;96753.34;;;4.75;100.00
13434;BME280;6789;47.678;9.158;2022-11-24T20:27:45;96747.28;;;4.68;100.00
13434;BME280;6789;47.678;9.158;2022-11-24T20:32:38;96740.03;;;4.63;100.00
13434;BME280;6789;47.678;9.158;2022-11-24T20:37:43;96745.25;;;4.63;100.00
13434;BME280;6789;47.678;9.158;2022-11-24T20:42:49;96749.44;;;4.64;100.00
13434;BME280;6789;47.678;9.158;2022-11-24T20:47:55;96756.75;;;4.54;100.00
13434;BME280;6789;47.678;9.158;2022-11-24T20:53:02;96741.28;;;4.46;100.00
13434;BME280;6789;47.678;9.158;2022-11-24T20:58:08;96748.22;;;4.60;100.00
13434;BME280;6789;47.678;9.158;2022-11-24T21:03:14;96756.25;;;4.44;100.00
13434;BME280;6789;47.678;9.158;2022-11-24T21:08:19;96746.56;;;4.32;100.00
13434;BME280;6789;47.678;9.158;2022-11-24T21:13:27;96746.97;;;4.15;100.00
13434;BME280;6789;47.678;9.158;2022-11-24T21:18:21;96743.25;;;4.03;100.00
13434;BME280;6789;47.678;9.158;2022-11-24T21:23:15;96731.47;;;4.00;100.00
13434;BME280;6789;47.678;9.158;2022-11-24T21:28:21;96728.06;;;4.00;100.00
13434;BME280;6789;47.678;9.158;2022-11-24T21:33:27;96727.19;;;3.93;100.00
13434;BME280;6789;47.678;9.158;2022-11-24T21:38:33;96719.13;;;3.88;100.00
13434;BME280;6789;47.678;9.158;2022-11-24T21:43:30;96728.19;;;3.92;100.00
13434;BME280;6789;47.678;9.158;2022-11-24T21:48:38;96716.53;;;3.88;100.00
13434;BME280;6789;47.678;9.158;2022-11-24T21:53:34;96715.56;;;3.89;100.00
13434;BME280;6789;47.678;9.158;2022-11-24T21:58:32;96717.41;;;3.95;100.00
13434;BME280;6789;47.678;9.158;2022-11-24T22:03:25;96710.28;;;3.97;100.00
13434;BME280;6789;47.678;9.158;2022-11-24T22:08:22;96701.41;;;4.06;100.00
13434;BME280;6789;47.678;9.158;2022-11-24T22:13:15;96703.31;;;4.18;100.00
13434;BME280;6789;47.678;9.158;2022-11-24T22:18:08;96705.03;;;3.90;100.00
13434;BME280;6789;47.678;9.158;2022-11-24T22:23:00;96700.38;;;3.86;100.00
13434;BME280;6789;47.678;9.158;2022-11-24T22:28:06;96702.00;;;3.72;100.00
13434;BME280;6789;47.678;9.158;2022-11-24T22:32:59;96709.19;;;3.91;100.00
13434;BME280;6789;47.678;9.158;2022-11-24T22:37:53;96723.22;;;3.97;100.00
13434;BME280;6789;47.678;9.158;2022-11-24T22:42:59;96717.13;;;4.04;100.00
13434;BME280;6789;47.678;9.158;2022-11-24T22:48:05;96718.78;;;3.91;100.00
13434;BME280;6789;47.678;9.158;2022-11-24T22:53:10;96715.22;;;3.92;100.00
13434;BME280;6789;47.678;9.158;2022-11-24T22:58:16;96723.91;;;4.05;100.00
13434;BME280;6789;47.678;9.158;2022-11-24T23:03:22;96718.28;;;4.02;100.00
13434;BME280;6789;47.678;9.158;2022-11-24T23:08:23;96721.66;;;4.17;100.00
13434;BME280;6789;47.678;9.158;2022-11-24T23:13:16;96724.06;;;4.18;100.00
13434;BME280;6789;47.678;9.158;2022-11-24T23:18:09;96720.28;;;4.21;100.00
13434;BME280;6789;47.678;9.158;2022-11-24T23:23:01;96725.66;;;4.19;100.00
13434;BME280;6789;47.678;9.158;2022-11-24T23:27:53;96720.78;;;4.10;100.00
13434;BME280;6789;47.678;9.158;2022-11-24T23:32:59;96719.16;;;4.09;100.00
13434;BME280;6789;47.678;9.158;2022-11-24T23:38:05;96710.75;;;4.07;100.00
13434;BME280;6789;47.678;9.158;2022-11-24T23:42:58;96712.13;;;4.03;100.00
13434;BME280;6789;47.678;9.158;2022-11-24T23:48:04;96705.75;;;4.05;100.00
13434;BME280;6789;47.678;9.158;2022-11-24T23:53:00;96704.00;;;4.06;100.00
13434;BME280;6789;47.678;9.158;2022-11-24T23:57:52;96698.50;;;4.15;100.00
